sensor_id;sensor_type;location;lat;lon;timestamp;temperature;humidity
48988;DHT22;34799;51.440;-2.534;2023-06-04T00:00:11;14.60;99.90
48988;DHT22;34799;51.440;-2.534;2023-06-04T00:02:39;14.40;99.90
48988;DHT22;34799;51.440;-2.534;2023-06-04T00:05:06;14.40;99.90
48988;DHT22;34799;51.440;-2.534;2023-06-04T00:07:33;14.40;99.90
48988;DHT22;34799;51.440;-2.534;2023-06-04T00:10:00;14.40;99.90
48988;DHT22;34799;51.440;-2.534;2023-06-04T00:12:27;14.30;99.90
48988;DHT22;34799;51.440;-2.534;2023-06-04T00:14:54;14.30;99.90
48988;DHT22;34799;51.440;-2.534;2023-06-04T00:17:21;14.20;99.90
48988;DHT22;34799;51.440;-2.534;2023-06-04T00:19:48;14.20;99.90
48988;DHT22;34799;51.440;-2.534;2023-06-04T00:22:16;14.20;99.90
48988;DHT22;34799;51.440;-2.534;2023-06-04T00:24:45;14.30;99.90
48988;DHT22;34799;51.440;-2.534;2023-06-04T00:27:12;14.20;99.90
48988;DHT22;34799;51.440;-2.534;2023-06-04T00:29:39;14.20;99.90
48988;DHT22;34799;51.440;-2.534;2023-06-04T00:32:07;14.10;99.90
48988;DHT22;34799;51.440;-2.534;2023-06-04T00:34:34;14.10;99.90
48988;DHT22;34799;51.440;-2.534;2023-06-04T00:37:01;14.10;99.90
48988;DHT22;34799;51.440;-2.534;2023-06-04T00:39:28;14.30;99.90
48988;DHT22;34799;51.440;-2.534;2023-06-04T00:41:56;13.90;99.90
48988;DHT22;34799;51.440;-2.534;2023-06-04T00:44:23;13.90;99.90
48988;DHT22;34799;51.440;-2.534;2023-06-04T00:46:52;13.80;99.90
48988;DHT22;34799;51.440;-2.534;2023-06-04T00:49:21;14.30;99.90
48988;DHT22;34799;51.440;-2.534;2023-06-04T00:51:49;13.70;99.90
48988;DHT22;34799;51.440;-2.534;2023-06-04T00:54:17;13.70;99.90
48988;DHT22;34799;51.440;-2.534;2023-06-04T00:56:48;13.60;99.90
48988;DHT22;34799;51.440;-2.534;2023-06-04T00:59:17;13.50;99.90
48988;DHT22;34799;51.440;-2.534;2023-06-04T01:01:55;13.50;99.90
48988;DHT22;34799;51.440;-2.534;2023-06-04T01:04:30;13.50;99.90
48988;DHT22;34799;51.440;-2.534;2023-06-04T01:07:00;13.40;99.90
48988;DHT22;34799;51.440;-2.534;2023-06-04T01:09:31;13.40;99.90
48988;DHT22;34799;51.440;-2.534;2023-06-04T01:11:58;13.30;99.90
48988;DHT22;34799;51.440;-2.534;2023-06-04T01:14:26;13.30;99.90
48988;DHT22;34799;51.440;-2.534;2023-06-04T01:16:56;13.20;99.90
48988;DHT22;34799;51.440;-2.534;2023-06-04T01:25:40;13.10;99.90
48988;DHT22;34799;51.440;-2.534;2023-06-04T01:28:13;12.90;99.90
48988;DHT22;34799;51.440;-2.534;2023-06-04T01:30:45;12.90;99.90
48988;DHT22;34799;51.440;-2.534;2023-06-04T01:33:17;13.30;99.90
48988;DHT22;34799;51.440;-2.534;2023-06-04T01:35:44;12.90;99.90
48988;DHT22;34799;51.440;-2.534;2023-06-04T01:38:12;12.90;99.90
48988;DHT22;34799;51.440;-2.534;2023-06-04T01:40:40;12.80;99.90
48988;DHT22;34799;51.440;-2.534;2023-06-04T01:43:08;12.80;99.90
48988;DHT22;34799;51.440;-2.534;2023-06-04T01:45:35;12.80;99.90
48988;DHT22;34799;51.440;-2.534;2023-06-04T01:48:04;12.80;99.90
48988;DHT22;34799;51.440;-2.534;2023-06-04T01:50:32;12.80;99.90
48988;DHT22;34799;51.440;-2.534;2023-06-04T01:52:59;12.80;99.90
48988;DHT22;34799;51.440;-2.534;2023-06-04T01:55:26;12.80;99.90
48988;DHT22;34799;51.440;-2.534;2023-06-04T01:57:56;12.80;99.90
48988;DHT22;34799;51.440;-2.534;2023-06-04T02:00:24;12.70;99.90
48988;DHT22;34799;51.440;-2.534;2023-06-04T02:02:52;12.70;99.90
48988;DHT22;34799;51.440;-2.534;2023-06-04T02:05:19;12.70;99.90
48988;DHT22;34799;51.440;-2.534;2023-06-04T02:07:47;12.60;99.90
48988;DHT22;34799;51.440;-2.534;2023-06-04T02:10:16;12.60;99.90
48988;DHT22;34799;51.440;-2.534;2023-06-04T02:12:55;13.10;99.90
48988;DHT22;34799;51.440;-2.534;2023-06-04T02:15:24;12.60;99.90
48988;DHT22;34799;51.440;-2.534;2023-06-04T02:17:55;12.50;99.90
48988;DHT22;34799;51.440;-2.534;2023-06-04T02:20:29;12.40;99.90
48988;DHT22;34799;51.440;-2.534;2023-06-04T02:22:58;12.60;99.90
48988;DHT22;34799;51.440;-2.534;2023-06-04T02:25:32;11.50;99.90
48988;DHT22;34799;51.440;-2.534;2023-06-04T02:28:03;13.60;99.90
48988;DHT22;34799;51.440;-2.534;2023-06-04T02:30:35;12.30;99.90
48988;DHT22;34799;51.440;-2.534;2023-06-04T02:33:07;12.30;99.90
48988;DHT22;34799;51.440;-2.534;2023-06-04T02:35:37;12.40;99.90
48988;DHT22;34799;51.440;-2.534;2023-06-04T02:38:04;12.70;99.90
48988;DHT22;34799;51.440;-2.534;2023-06-04T02:40:32;12.70;99.90
48988;DHT22;34799;51.440;-2.534;2023-06-04T02:42:59;11.40;99.90
48988;DHT22;34799;51.440;-2.534;2023-06-04T02:45:32;12.20;99.90
48988;DHT22;34799;51.440;-2.534;2023-06-04T02:48:00;12.20;99.90
48988;DHT22;34799;51.440;-2.534;2023-06-04T02:50:32;12.20;99.90
48988;DHT22;34799;51.440;-2.534;2023-06-04T02:53:00;12.30;99.90
48988;DHT22;34799;51.440;-2.534;2023-06-04T02:55:27;14.40;99.90
48988;DHT22;34799;51.440;-2.534;2023-06-04T02:57:56;11.80;99.90
48988;DHT22;34799;51.440;-2.534;2023-06-04T03:00:25;12.40;99.90
48988;DHT22;34799;51.440;-2.534;2023-06-04T03:03:06;14.10;99.90
48988;DHT22;34799;51.440;-2.534;2023-06-04T03:05:37;11.10;99.90
48988;DHT22;34799;51.440;-2.534;2023-06-04T03:08:08;11.80;99.90
48988;DHT22;34799;51.440;-2.534;2023-06-04T03:10:36;11.80;99.90
48988;DHT22;34799;51.440;-2.534;2023-06-04T03:13:04;12.10;99.90
48988;DHT22;34799;51.440;-2.534;2023-06-04T03:15:38;11.70;99.90
48988;DHT22;34799;51.440;-2.534;2023-06-04T03:18:06;12.00;99.90
48988;DHT22;34799;51.440;-2.534;2023-06-04T03:20:37;11.60;99.90
48988;DHT22;34799;51.440;-2.534;2023-06-04T03:23:06;11.80;99.90
48988;DHT22;34799;51.440;-2.534;2023-06-04T03:25:34;12.60;99.90
48988;DHT22;34799;51.440;-2.534;2023-06-04T03:28:03;11.60;99.90
48988;DHT22;34799;51.440;-2.534;2023-06-04T03:30:33;11.70;99.90
48988;DHT22;34799;51.440;-2.534;2023-06-04T03:33:03;11.60;99.90
48988;DHT22;34799;51.440;-2.534;2023-06-04T03:35:31;11.70;99.90
48988;DHT22;34799;51.440;-2.534;2023-06-04T03:37:59;11.50;99.90
48988;DHT22;34799;51.440;-2.534;2023-06-04T03:40:29;11.50;99.90
48988;DHT22;34799;51.440;-2.534;2023-06-04T03:42:57;11.50;99.90
48988;DHT22;34799;51.440;-2.534;2023-06-04T03:45:27;11.40;99.90
48988;DHT22;34799;51.440;-2.534;2023-06-04T03:47:55;11.30;99.90
48988;DHT22;34799;51.440;-2.534;2023-06-04T03:50:30;11.50;99.90
48988;DHT22;34799;51.440;-2.534;2023-06-04T03:52:58;11.40;99.90
48988;DHT22;34799;51.440;-2.534;2023-06-04T03:55:32;10.40;99.90
48988;DHT22;34799;51.440;-2.534;2023-06-04T03:58:06;11.50;99.90
48988;DHT22;34799;51.440;-2.534;2023-06-04T04:00:40;11.30;99.90
48988;DHT22;34799;51.440;-2.534;2023-06-04T04:03:12;11.80;99.90
48988;DHT22;34799;51.440;-2.534;2023-06-04T04:05:43;11.50;99.90
48988;DHT22;34799;51.440;-2.534;2023-06-04T04:08:10;11.40;99.90
48988;DHT22;34799;51.440;-2.534;2023-06-04T04:10:38;11.80;99.90
48988;DHT22;34799;51.440;-2.534;2023-06-04T04:13:05;11.30;99.90
48988;DHT22;34799;51.440;-2.534;2023-06-04T04:15:37;11.60;99.90
48988;DHT22;34799;51.440;-2.534;2023-06-04T04:18:15;11.50;99.90
48988;DHT22;34799;51.440;-2.534;2023-06-04T04:20:45;11.70;99.90
48988;DHT22;34799;51.440;-2.534;2023-06-04T04:23:13;9.10;99.90
48988;DHT22;34799;51.440;-2.534;2023-06-04T04:25:44;11.50;99.90
48988;DHT22;34799;51.440;-2.534;2023-06-04T04:28:15;11.10;99.90
48988;DHT22;34799;51.440;-2.534;2023-06-04T04:30:47;11.40;99.90
48988;DHT22;34799;51.440;-2.534;2023-06-04T04:33:16;11.60;99.90
48988;DHT22;34799;51.440;-2.534;2023-06-04T04:35:47;11.70;99.90
48988;DHT22;34799;51.440;-2.534;2023-06-04T04:38:22;11.20;99.90
48988;DHT22;34799;51.440;-2.534;2023-06-04T04:41:01;11.30;99.90
48988;DHT22;34799;51.440;-2.534;2023-06-04T04:43:39;13.10;99.90
48988;DHT22;34799;51.440;-2.534;2023-06-04T04:46:17;11.30;99.90
48988;DHT22;34799;51.440;-2.534;2023-06-04T04:48:51;11.20;99.90
48988;DHT22;34799;51.440;-2.534;2023-06-04T04:51:18;11.40;99.90
48988;DHT22;34799;51.440;-2.534;2023-06-04T04:53:46;11.30;99.90
48988;DHT22;34799;51.440;-2.534;2023-06-04T04:56:15;11.10;99.90
48988;DHT22;34799;51.440;-2.534;2023-06-04T04:58:48;11.40;99.90
48988;DHT22;34799;51.440;-2.534;2023-06-04T05:01:22;12.80;99.90
48988;DHT22;34799;51.440;-2.534;2023-06-04T05:03:52;11.30;99.90
48988;DHT22;34799;51.440;-2.534;2023-06-04T05:06:24;11.70;99.90
48988;DHT22;34799;51.440;-2.534;2023-06-04T05:08:54;11.60;99.90
48988;DHT22;34799;51.440;-2.534;2023-06-04T05:11:24;11.80;99.90
48988;DHT22;34799;51.440;-2.534;2023-06-04T05:13:52;11.60;99.90
48988;DHT22;34799;51.440;-2.534;2023-06-04T05:16:23;11.70;99.90
48988;DHT22;34799;51.440;-2.534;2023-06-04T05:18:53;12.10;99.90
48988;DHT22;34799;51.440;-2.534;2023-06-04T05:21:29;12.10;99.90
48988;DHT22;34799;51.440;-2.534;2023-06-04T05:24:02;11.60;99.90
48988;DHT22;34799;51.440;-2.534;2023-06-04T05:26:36;11.30;99.90
48988;DHT22;34799;51.440;-2.534;2023-06-04T05:29:14;11.50;99.90
48988;DHT22;34799;51.440;-2.534;2023-06-04T05:31:46;11.80;99.90
48988;DHT22;34799;51.440;-2.534;2023-06-04T05:34:18;11.70;99.90
48988;DHT22;34799;51.440;-2.534;2023-06-04T05:36:48;11.70;99.90
48988;DHT22;34799;51.440;-2.534;2023-06-04T05:39:17;11.90;99.90
48988;DHT22;34799;51.440;-2.534;2023-06-04T05:42:08;11.60;99.90
48988;DHT22;34799;51.440;-2.534;2023-06-04T05:44:36;11.60;99.90
48988;DHT22;34799;51.440;-2.534;2023-06-04T05:47:08;11.60;99.90
48988;DHT22;34799;51.440;-2.534;2023-06-04T05:49:36;11.60;99.90
48988;DHT22;34799;51.440;-2.534;2023-06-04T05:52:04;12.00;99.90
48988;DHT22;34799;51.440;-2.534;2023-06-04T05:54:33;11.80;99.90
48988;DHT22;34799;51.440;-2.534;2023-06-04T05:57:05;11.50;99.90
48988;DHT22;34799;51.440;-2.534;2023-06-04T05:59:35;11.60;99.90
48988;DHT22;34799;51.440;-2.534;2023-06-04T06:02:09;11.80;99.90
48988;DHT22;34799;51.440;-2.534;2023-06-04T06:04:40;11.70;99.90
48988;DHT22;34799;51.440;-2.534;2023-06-04T06:07:12;11.90;99.90
48988;DHT22;34799;51.440;-2.534;2023-06-04T06:09:42;11.80;99.90
48988;DHT22;34799;51.440;-2.534;2023-06-04T06:12:12;12.30;99.90
48988;DHT22;34799;51.440;-2.534;2023-06-04T06:14:42;11.90;99.90
48988;DHT22;34799;51.440;-2.534;2023-06-04T06:17:09;12.10;99.90
48988;DHT22;34799;51.440;-2.534;2023-06-04T06:19:37;12.30;99.90
48988;DHT22;34799;51.440;-2.534;2023-06-04T06:22:08;12.10;99.90
48988;DHT22;34799;51.440;-2.534;2023-06-04T06:24:42;12.30;99.90
48988;DHT22;34799;51.440;-2.534;2023-06-04T06:27:12;12.30;99.90
48988;DHT22;34799;51.440;-2.534;2023-06-04T06:29:40;12.30;99.90
48988;DHT22;34799;51.440;-2.534;2023-06-04T06:32:13;9.30;99.90
48988;DHT22;34799;51.440;-2.534;2023-06-04T06:34:41;12.00;99.90
48988;DHT22;34799;51.440;-2.534;2023-06-04T06:37:10;14.00;99.90
48988;DHT22;34799;51.440;-2.534;2023-06-04T06:39:38;12.40;99.90
48988;DHT22;34799;51.440;-2.534;2023-06-04T06:42:09;12.40;99.90
48988;DHT22;34799;51.440;-2.534;2023-06-04T06:44:49;12.60;99.90
48988;DHT22;34799;51.440;-2.534;2023-06-04T06:47:21;12.40;99.90
48988;DHT22;34799;51.440;-2.534;2023-06-04T06:49:49;12.50;99.90
48988;DHT22;34799;51.440;-2.534;2023-06-04T06:52:17;12.40;99.90
48988;DHT22;34799;51.440;-2.534;2023-06-04T06:54:47;12.70;99.90
48988;DHT22;34799;51.440;-2.534;2023-06-04T06:57:18;12.40;99.90
48988;DHT22;34799;51.440;-2.534;2023-06-04T06:59:53;12.40;99.90
48988;DHT22;34799;51.440;-2.534;2023-06-04T07:02:24;12.80;99.90
48988;DHT22;34799;51.440;-2.534;2023-06-04T07:04:57;12.80;99.90
48988;DHT22;34799;51.440;-2.534;2023-06-04T07:07:31;12.70;99.90
48988;DHT22;34799;51.440;-2.534;2023-06-04T07:10:01;13.00;99.90
48988;DHT22;34799;51.440;-2.534;2023-06-04T07:12:36;13.00;99.90
48988;DHT22;34799;51.440;-2.534;2023-06-04T07:15:30;13.30;99.90
48988;DHT22;34799;51.440;-2.534;2023-06-04T07:18:00;14.60;99.90
48988;DHT22;34799;51.440;-2.534;2023-06-04T07:20:33;13.10;99.90
48988;DHT22;34799;51.440;-2.534;2023-06-04T07:23:00;13.00;99.90
48988;DHT22;34799;51.440;-2.534;2023-06-04T07:25:28;12.90;99.90
48988;DHT22;34799;51.440;-2.534;2023-06-04T07:28:02;13.20;99.90
48988;DHT22;34799;51.440;-2.534;2023-06-04T07:30:44;13.60;99.90
48988;DHT22;34799;51.440;-2.534;2023-06-04T07:33:12;15.00;99.90
48988;DHT22;34799;51.440;-2.534;2023-06-04T07:35:40;13.60;99.90
48988;DHT22;34799;51.440;-2.534;2023-06-04T07:38:19;13.60;99.90
48988;DHT22;34799;51.440;-2.534;2023-06-04T07:40:54;14.00;99.90
48988;DHT22;34799;51.440;-2.534;2023-06-04T07:43:21;14.10;99.90
48988;DHT22;34799;51.440;-2.534;2023-06-04T07:45:52;14.30;99.90
48988;DHT22;34799;51.440;-2.534;2023-06-04T07:48:20;14.00;99.90
48988;DHT22;34799;51.440;-2.534;2023-06-04T07:50:47;14.30;99.90
48988;DHT22;34799;51.440;-2.534;2023-06-04T07:53:15;14.30;99.90
48988;DHT22;34799;51.440;-2.534;2023-06-04T07:55:49;13.90;99.90
48988;DHT22;34799;51.440;-2.534;2023-06-04T07:58:18;14.40;99.90
48988;DHT22;34799;51.440;-2.534;2023-06-04T08:00:54;14.90;99.90
48988;DHT22;34799;51.440;-2.534;2023-06-04T08:03:22;14.70;99.90
48988;DHT22;34799;51.440;-2.534;2023-06-04T08:06:02;14.70;99.90
48988;DHT22;34799;51.440;-2.534;2023-06-04T08:08:42;14.90;99.90
48988;DHT22;34799;51.440;-2.534;2023-06-04T08:11:23;13.70;99.90
48988;DHT22;34799;51.440;-2.534;2023-06-04T08:13:56;14.90;99.90
48988;DHT22;34799;51.440;-2.534;2023-06-04T08:16:25;12.30;99.90
48988;DHT22;34799;51.440;-2.534;2023-06-04T08:19:07;15.20;99.90
48988;DHT22;34799;51.440;-2.534;2023-06-04T08:22:00;15.30;99.90
48988;DHT22;34799;51.440;-2.534;2023-06-04T08:24:42;15.50;99.90
48988;DHT22;34799;51.440;-2.534;2023-06-04T08:27:33;15.60;99.90
48988;DHT22;34799;51.440;-2.534;2023-06-04T08:30:30;15.90;99.90
48988;DHT22;34799;51.440;-2.534;2023-06-04T08:33:13;15.70;99.90
48988;DHT22;34799;51.440;-2.534;2023-06-04T08:35:53;15.60;99.90
48988;DHT22;34799;51.440;-2.534;2023-06-04T08:38:29;15.70;99.90
48988;DHT22;34799;51.440;-2.534;2023-06-04T08:44:16;15.90;99.90
48988;DHT22;34799;51.440;-2.534;2023-06-04T08:46:44;15.90;99.90
48988;DHT22;34799;51.440;-2.534;2023-06-04T08:49:12;16.10;99.90
48988;DHT22;34799;51.440;-2.534;2023-06-04T08:51:40;16.10;99.90
48988;DHT22;34799;51.440;-2.534;2023-06-04T08:54:09;16.20;99.90
48988;DHT22;34799;51.440;-2.534;2023-06-04T08:56:37;16.40;99.90
48988;DHT22;34799;51.440;-2.534;2023-06-04T08:59:07;16.50;99.90
48988;DHT22;34799;51.440;-2.534;2023-06-04T09:01:35;16.50;99.90
48988;DHT22;34799;51.440;-2.534;2023-06-04T09:04:05;16.50;99.90
48988;DHT22;34799;51.440;-2.534;2023-06-04T09:06:34;16.50;99.90
48988;DHT22;34799;51.440;-2.534;2023-06-04T09:09:05;16.50;99.90
48988;DHT22;34799;51.440;-2.534;2023-06-04T09:11:38;16.60;99.90
48988;DHT22;34799;51.440;-2.534;2023-06-04T09:14:08;16.70;99.90
48988;DHT22;34799;51.440;-2.534;2023-06-04T09:16:48;16.80;99.90
48988;DHT22;34799;51.440;-2.534;2023-06-04T09:19:16;17.00;99.90
48988;DHT22;34799;51.440;-2.534;2023-06-04T09:21:58;17.10;99.90
48988;DHT22;34799;51.440;-2.534;2023-06-04T09:24:38;17.20;99.90
48988;DHT22;34799;51.440;-2.534;2023-06-04T09:27:19;17.40;99.90
48988;DHT22;34799;51.440;-2.534;2023-06-04T09:29:57;17.60;99.90
48988;DHT22;34799;51.440;-2.534;2023-06-04T09:32:26;17.70;99.90
48988;DHT22;34799;51.440;-2.534;2023-06-04T09:34:55;17.60;99.90
48988;DHT22;34799;51.440;-2.534;2023-06-04T09:37:23;17.70;99.90
48988;DHT22;34799;51.440;-2.534;2023-06-04T09:39:55;17.80;99.90
48988;DHT22;34799;51.440;-2.534;2023-06-04T09:42:23;17.70;99.90
48988;DHT22;34799;51.440;-2.534;2023-06-04T09:44:52;17.90;99.90
48988;DHT22;34799;51.440;-2.534;2023-06-04T09:47:20;17.90;99.90
48988;DHT22;34799;51.440;-2.534;2023-06-04T09:49:49;18.10;99.90
48988;DHT22;34799;51.440;-2.534;2023-06-04T09:52:17;18.20;99.90
48988;DHT22;34799;51.440;-2.534;2023-06-04T09:54:44;18.30;99.90
48988;DHT22;34799;51.440;-2.534;2023-06-04T09:57:18;18.40;99.90
48988;DHT22;34799;51.440;-2.534;2023-06-04T09:59:50;18.50;99.90
48988;DHT22;34799;51.440;-2.534;2023-06-04T10:02:20;18.50;99.90
48988;DHT22;34799;51.440;-2.534;2023-06-04T10:04:55;18.60;99.90
48988;DHT22;34799;51.440;-2.534;2023-06-04T10:07:26;18.60;99.90
48988;DHT22;34799;51.440;-2.534;2023-06-04T10:09:55;18.80;99.90
48988;DHT22;34799;51.440;-2.534;2023-06-04T10:12:26;18.90;99.90
48988;DHT22;34799;51.440;-2.534;2023-06-04T10:15:01;19.00;99.90
48988;DHT22;34799;51.440;-2.534;2023-06-04T10:17:30;19.10;99.90
48988;DHT22;34799;51.440;-2.534;2023-06-04T10:20:01;19.10;99.50
48988;DHT22;34799;51.440;-2.534;2023-06-04T10:22:30;19.30;99.60
48988;DHT22;34799;51.440;-2.534;2023-06-04T10:24:59;19.30;99.00
48988;DHT22;34799;51.440;-2.534;2023-06-04T10:27:27;19.30;98.90
48988;DHT22;34799;51.440;-2.534;2023-06-04T10:29:57;19.20;99.40
48988;DHT22;34799;51.440;-2.534;2023-06-04T10:32:28;19.20;99.70
48988;DHT22;34799;51.440;-2.534;2023-06-04T10:34:56;19.30;99.40
48988;DHT22;34799;51.440;-2.534;2023-06-04T10:37:47;16.00;97.80
48988;DHT22;34799;51.440;-2.534;2023-06-04T10:40:19;19.50;99.40
48988;DHT22;34799;51.440;-2.534;2023-06-04T10:43:05;19.50;99.10
48988;DHT22;34799;51.440;-2.534;2023-06-04T10:45:36;19.90;99.30
48988;DHT22;34799;51.440;-2.534;2023-06-04T10:48:09;20.00;98.90
48988;DHT22;34799;51.440;-2.534;2023-06-04T10:50:52;20.30;98.30
48988;DHT22;34799;51.440;-2.534;2023-06-04T10:53:40;20.30;98.30
48988;DHT22;34799;51.440;-2.534;2023-06-04T10:56:08;20.60;96.90
48988;DHT22;34799;51.440;-2.534;2023-06-04T10:58:36;20.40;96.90
48988;DHT22;34799;51.440;-2.534;2023-06-04T11:01:04;20.30;97.20
48988;DHT22;34799;51.440;-2.534;2023-06-04T11:03:37;20.50;97.60
48988;DHT22;34799;51.440;-2.534;2023-06-04T11:06:17;19.70;96.40
48988;DHT22;34799;51.440;-2.534;2023-06-04T11:09:04;20.70;96.50
48988;DHT22;34799;51.440;-2.534;2023-06-04T11:14:10;20.60;96.00
48988;DHT22;34799;51.440;-2.534;2023-06-04T11:16:42;20.90;96.50
48988;DHT22;34799;51.440;-2.534;2023-06-04T11:19:09;21.00;97.10
48988;DHT22;34799;51.440;-2.534;2023-06-04T11:21:40;21.10;97.30
48988;DHT22;34799;51.440;-2.534;2023-06-04T11:24:13;21.10;97.70
48988;DHT22;34799;51.440;-2.534;2023-06-04T11:26:42;21.40;96.20
48988;DHT22;34799;51.440;-2.534;2023-06-04T11:29:19;21.50;96.20
48988;DHT22;34799;51.440;-2.534;2023-06-04T11:32:01;22.50;96.10
48988;DHT22;34799;51.440;-2.534;2023-06-04T11:34:30;21.50;96.60
48988;DHT22;34799;51.440;-2.534;2023-06-04T11:37:10;21.40;96.30
48988;DHT22;34799;51.440;-2.534;2023-06-04T11:39:38;21.40;96.80
48988;DHT22;34799;51.440;-2.534;2023-06-04T11:42:06;21.60;95.80
48988;DHT22;34799;51.440;-2.534;2023-06-04T11:44:39;21.40;94.70
48988;DHT22;34799;51.440;-2.534;2023-06-04T11:47:13;21.80;95.30
48988;DHT22;34799;51.440;-2.534;2023-06-04T11:49:45;21.90;94.90
48988;DHT22;34799;51.440;-2.534;2023-06-04T11:52:13;21.50;94.70
48988;DHT22;34799;51.440;-2.534;2023-06-04T11:54:47;21.60;95.00
48988;DHT22;34799;51.440;-2.534;2023-06-04T11:57:19;22.20;95.00
48988;DHT22;34799;51.440;-2.534;2023-06-04T12:00:05;22.00;93.70
48988;DHT22;34799;51.440;-2.534;2023-06-04T12:02:54;22.00;94.50
48988;DHT22;34799;51.440;-2.534;2023-06-04T12:05:52;21.50;94.90
48988;DHT22;34799;51.440;-2.534;2023-06-04T12:08:26;23.00;93.30
48988;DHT22;34799;51.440;-2.534;2023-06-04T12:10:59;23.10;94.20
48988;DHT22;34799;51.440;-2.534;2023-06-04T12:13:37;22.60;93.40
48988;DHT22;34799;51.440;-2.534;2023-06-04T12:16:10;22.50;94.90
48988;DHT22;34799;51.440;-2.534;2023-06-04T12:18:47;20.50;93.90
48988;DHT22;34799;51.440;-2.534;2023-06-04T12:21:17;24.10;95.00
48988;DHT22;34799;51.440;-2.534;2023-06-04T12:23:49;22.80;93.20
48988;DHT22;34799;51.440;-2.534;2023-06-04T12:26:22;22.90;94.50
48988;DHT22;34799;51.440;-2.534;2023-06-04T12:29:01;22.90;93.70
48988;DHT22;34799;51.440;-2.534;2023-06-04T12:31:29;23.00;93.10
48988;DHT22;34799;51.440;-2.534;2023-06-04T12:34:09;23.00;93.20
48988;DHT22;34799;51.440;-2.534;2023-06-04T12:36:38;23.30;93.10
48988;DHT22;34799;51.440;-2.534;2023-06-04T12:39:06;23.20;93.70
48988;DHT22;34799;51.440;-2.534;2023-06-04T12:41:34;23.30;92.70
48988;DHT22;34799;51.440;-2.534;2023-06-04T12:44:01;23.40;92.30
48988;DHT22;34799;51.440;-2.534;2023-06-04T12:46:35;23.50;93.30
48988;DHT22;34799;51.440;-2.534;2023-06-04T12:49:02;22.40;92.80
48988;DHT22;34799;51.440;-2.534;2023-06-04T12:51:30;23.60;94.10
48988;DHT22;34799;51.440;-2.534;2023-06-04T12:53:58;23.90;93.10
48988;DHT22;34799;51.440;-2.534;2023-06-04T12:56:28;23.90;93.40
48988;DHT22;34799;51.440;-2.534;2023-06-04T12:58:57;23.70;92.40
48988;DHT22;34799;51.440;-2.534;2023-06-04T13:01:26;23.90;92.30
48988;DHT22;34799;51.440;-2.534;2023-06-04T13:03:58;24.20;92.80
48988;DHT22;34799;51.440;-2.534;2023-06-04T13:06:27;24.10;92.20
48988;DHT22;34799;51.440;-2.534;2023-06-04T13:08:57;24.40;92.70
48988;DHT22;34799;51.440;-2.534;2023-06-04T13:11:30;24.20;92.80
48988;DHT22;34799;51.440;-2.534;2023-06-04T13:14:00;24.30;92.30
48988;DHT22;34799;51.440;-2.534;2023-06-04T13:16:31;24.20;92.10
48988;DHT22;34799;51.440;-2.534;2023-06-04T13:18:58;21.90;91.60
48988;DHT22;34799;51.440;-2.534;2023-06-04T13:21:26;24.10;91.50
48988;DHT22;34799;51.440;-2.534;2023-06-04T13:24:00;24.30;91.90
48988;DHT22;34799;51.440;-2.534;2023-06-04T13:26:36;26.10;93.20
48988;DHT22;34799;51.440;-2.534;2023-06-04T13:29:03;24.20;93.20
48988;DHT22;34799;51.440;-2.534;2023-06-04T13:31:34;24.20;91.90
48988;DHT22;34799;51.440;-2.534;2023-06-04T13:34:05;24.50;92.00
48988;DHT22;34799;51.440;-2.534;2023-06-04T13:36:41;24.60;91.80
48988;DHT22;34799;51.440;-2.534;2023-06-04T13:39:09;25.20;92.20
48988;DHT22;34799;51.440;-2.534;2023-06-04T13:46:46;24.70;91.80
48988;DHT22;34799;51.440;-2.534;2023-06-04T13:49:14;24.90;91.80
48988;DHT22;34799;51.440;-2.534;2023-06-04T13:51:44;25.30;91.70
48988;DHT22;34799;51.440;-2.534;2023-06-04T13:54:13;25.10;91.00
48988;DHT22;34799;51.440;-2.534;2023-06-04T14:01:21;25.30;91.30
48988;DHT22;34799;51.440;-2.534;2023-06-04T14:03:48;25.10;91.20
48988;DHT22;34799;51.440;-2.534;2023-06-04T14:06:19;25.20;91.60
48988;DHT22;34799;51.440;-2.534;2023-06-04T14:12:26;25.00;91.00
48988;DHT22;34799;51.440;-2.534;2023-06-04T14:14:56;25.10;90.90
48988;DHT22;34799;51.440;-2.534;2023-06-04T14:17:23;25.40;91.60
48988;DHT22;34799;51.440;-2.534;2023-06-04T14:19:51;25.30;91.20
48988;DHT22;34799;51.440;-2.534;2023-06-04T14:22:18;25.10;91.70
48988;DHT22;34799;51.440;-2.534;2023-06-04T14:24:48;25.20;91.80
48988;DHT22;34799;51.440;-2.534;2023-06-04T14:27:16;25.30;91.20
48988;DHT22;34799;51.440;-2.534;2023-06-04T14:29:46;25.30;91.30
48988;DHT22;34799;51.440;-2.534;2023-06-04T14:32:26;25.50;91.20
48988;DHT22;34799;51.440;-2.534;2023-06-04T14:34:54;25.60;91.40
48988;DHT22;34799;51.440;-2.534;2023-06-04T14:37:25;23.00;91.40
48988;DHT22;34799;51.440;-2.534;2023-06-04T14:39:52;25.50;91.50
48988;DHT22;34799;51.440;-2.534;2023-06-04T14:42:21;24.80;91.10
48988;DHT22;34799;51.440;-2.534;2023-06-04T14:44:50;25.60;91.20
48988;DHT22;34799;51.440;-2.534;2023-06-04T14:47:17;25.60;91.70
48988;DHT22;34799;51.440;-2.534;2023-06-04T14:49:48;25.70;91.80
48988;DHT22;34799;51.440;-2.534;2023-06-04T14:52:15;25.80;91.20
48988;DHT22;34799;51.440;-2.534;2023-06-04T14:54:45;26.10;91.10
48988;DHT22;34799;51.440;-2.534;2023-06-04T14:57:12;25.90;90.90
48988;DHT22;34799;51.440;-2.534;2023-06-04T14:59:41;25.80;91.20
48988;DHT22;34799;51.440;-2.534;2023-06-04T15:02:11;23.20;90.80
48988;DHT22;34799;51.440;-2.534;2023-06-04T15:04:43;26.10;91.50
48988;DHT22;34799;51.440;-2.534;2023-06-04T15:07:12;26.00;91.50
48988;DHT22;34799;51.440;-2.534;2023-06-04T15:09:40;25.70;91.50
48988;DHT22;34799;51.440;-2.534;2023-06-04T15:12:13;25.60;91.10
48988;DHT22;34799;51.440;-2.534;2023-06-04T15:14:42;25.10;90.50
48988;DHT22;34799;51.440;-2.534;2023-06-04T15:17:14;25.60;91.30
48988;DHT22;34799;51.440;-2.534;2023-06-04T15:19:42;25.80;91.60
48988;DHT22;34799;51.440;-2.534;2023-06-04T15:22:13;25.90;91.20
48988;DHT22;34799;51.440;-2.534;2023-06-04T15:24:45;25.90;90.90
48988;DHT22;34799;51.440;-2.534;2023-06-04T15:27:12;25.80;91.30
48988;DHT22;34799;51.440;-2.534;2023-06-04T15:29:40;24.90;90.50
48988;DHT22;34799;51.440;-2.534;2023-06-04T15:32:09;25.80;90.90
48988;DHT22;34799;51.440;-2.534;2023-06-04T15:34:40;25.90;90.80
48988;DHT22;34799;51.440;-2.534;2023-06-04T15:37:08;26.00;90.70
48988;DHT22;34799;51.440;-2.534;2023-06-04T15:39:35;26.10;91.10
48988;DHT22;34799;51.440;-2.534;2023-06-04T15:42:03;26.20;91.10
48988;DHT22;34799;51.440;-2.534;2023-06-04T15:44:31;26.20;91.10
48988;DHT22;34799;51.440;-2.534;2023-06-04T15:47:01;26.00;90.80
48988;DHT22;34799;51.440;-2.534;2023-06-04T15:49:30;24.70;91.00
48988;DHT22;34799;51.440;-2.534;2023-06-04T15:51:59;25.90;90.80
48988;DHT22;34799;51.440;-2.534;2023-06-04T15:54:29;26.10;91.00
48988;DHT22;34799;51.440;-2.534;2023-06-04T15:57:10;25.90;91.30
48988;DHT22;34799;51.440;-2.534;2023-06-04T15:59:40;26.10;91.90
48988;DHT22;34799;51.440;-2.534;2023-06-04T16:02:09;25.90;91.30
48988;DHT22;34799;51.440;-2.534;2023-06-04T16:04:37;26.00;91.70